Terminal Aerodrome Forecast
Issued by NWS

Home | Current Version | Previous Version | Text Only | Print | Product List | Glossary On
Versions: 1 2 3 4 5 6 7 8 9 10 11 12 13
000
FTUS42 TJSJ 211700 RRA
TAFJMZ
TAF
TJMZ 211743Z 2118/2218 25009KT P6SM SCT040
     FM212300 06005KT P6SM FEW035
     FM221750 27009KT P6SM SCT040
      AMD NOT SKED=

USA.gov is the U.S. government's official web portal to all federal, state and local government web resources and services.